Time;durP1;ratioP1;P1;durP2;ratioP2;P2;SDS_P1;SDS_P2;PMS_P1;PMS_P2;Temp;Humidity;BMP_temperature;BMP_pressure;BME280_temperature;BME280_humidity;BME280_pressure;Samples;Min_cycle;Max_cycle;Signal;HPM_P1;HPM_P2
2022/10/14 00:00:16;;;;;;;0.45;0.30;;;12.90;99.90;;;;;;5036260;28;20080;-83
2022/10/14 00:02:41;;;;;;;0.00;0.00;;;12.90;99.90;;;;;;5052470;28;20495;-83
2022/10/14 00:05:08;;;;;;;0.22;0.10;;;12.90;99.90;;;;;;5036389;28;20084;-83
2022/10/14 00:07:35;;;;;;;0.00;0.00;;;12.80;99.90;;;;;;5036292;28;20050;-83
2022/10/14 00:10:00;;;;;;;0.05;0.05;;;12.90;99.90;;;;;;5018974;28;20056;-83
2022/10/14 00:12:28;;;;;;;0.00;0.00;;;12.80;99.90;;;;;;5052073;28;20041;-83
2022/10/14 00:14:54;;;;;;;0.10;0.10;;;12.80;99.90;;;;;;5018989;28;20064;-83
2022/10/14 00:17:19;;;;;;;0.10;0.08;;;12.80;99.90;;;;;;5035555;28;20046;-83
2022/10/14 00:19:45;;;;;;;0.75;0.03;;;12.80;99.90;;;;;;5052626;28;20053;-83
2022/10/14 00:22:11;;;;;;;0.22;0.22;;;12.80;99.90;;;;;;5019123;28;20184;-83
2022/10/14 00:24:37;;;;;;;0.00;0.00;;;12.80;99.90;;;;;;5035374;28;20078;-83
2022/10/14 00:27:02;;;;;;;0.00;0.00;;;12.80;99.90;;;;;;5019055;28;20060;-83
2022/10/14 00:29:28;;;;;;;0.35;0.20;;;12.80;99.90;;;;;;5019641;28;20524;-83
2022/10/14 00:31:54;;;;;;;0.00;0.00;;;13.10;99.90;;;;;;5018664;28;20393;-83
2022/10/14 00:34:19;;;;;;;1.52;0.43;;;12.70;99.90;;;;;;5018758;28;20115;-83
2022/10/14 00:36:45;;;;;;;0.10;0.00;;;12.80;99.90;;;;;;5018680;28;20049;-83
2022/10/14 00:39:11;;;;;;;0.00;0.00;;;12.70;99.90;;;;;;5018394;28;20052;-83
2022/10/14 00:41:37;;;;;;;0.15;0.15;;;12.60;99.90;;;;;;5034676;28;20047;-83
2022/10/14 00:44:04;;;;;;;0.63;0.25;;;12.80;99.90;;;;;;5035119;28;20045;-83
2022/10/14 00:46:36;;;;;;;3.83;0.32;;;12.60;99.90;;;;;;5018477;28;20072;-83
2022/10/14 00:49:09;;;;;;;0.00;0.00;;;12.50;99.90;;;;;;5019304;28;20565;-82
2022/10/14 00:51:37;;;;;;;0.98;0.43;;;12.30;99.90;;;;;;5018690;28;20143;-83
2022/10/14 00:54:03;;;;;;;0.43;0.10;;;12.40;99.90;;;;;;5018397;28;20091;-83
2022/10/14 00:56:30;;;;;;;0.00;0.00;;;12.30;99.90;;;;;;5018363;28;20462;-83
2022/10/14 00:58:58;;;;;;;0.20;0.20;;;12.60;99.90;;;;;;5034563;28;20049;-83
2022/10/14 01:01:23;;;;;;;0.00;0.00;;;12.30;99.90;;;;;;5034621;28;20072;-83
2022/10/14 01:03:49;;;;;;;0.15;0.15;;;12.30;99.90;;;;;;5050645;28;20049;-82
2022/10/14 01:06:25;;;;;;;2.50;0.65;;;12.30;99.90;;;;;;5051145;28;20048;-83
2022/10/14 01:09:07;;;;;;;0.20;0.20;;;12.20;99.90;;;;;;5051314;28;20053;-83
2022/10/14 01:11:44;;;;;;;0.00;0.00;;;12.30;99.90;;;;;;5034756;28;20041;-83
2022/10/14 01:14:39;;;;;;;0.00;0.00;;;12.30;99.90;;;;;;5052017;28;20421;-83
2022/10/14 01:17:33;;;;;;;1.75;0.50;;;12.20;99.90;;;;;;5033536;28;20095;-83
2022/10/14 01:20:22;;;;;;;0.22;0.22;;;12.20;99.90;;;;;;5034351;28;20136;-83
2022/10/14 01:23:23;;;;;;;0.20;0.13;;;12.10;99.90;;;;;;5034996;28;20048;-83
2022/10/14 01:26:38;;;;;;;0.10;0.10;;;12.20;99.90;;;;;;5035298;28;20188;-83
2022/10/14 01:29:42;;;;;;;0.00;0.00;;;12.10;99.90;;;;;;5067579;28;20052;-83
2022/10/14 01:32:20;;;;;;;0.13;0.10;;;12.10;99.90;;;;;;5017591;28;20045;-83
2022/10/14 01:35:15;;;;;;;0.00;0.00;;;12.10;99.90;;;;;;5034010;28;20116;-83
2022/10/14 01:37:51;;;;;;;0.00;0.00;;;12.10;99.90;;;;;;5032695;28;20061;-83
2022/10/14 01:40:40;;;;;;;0.98;0.17;;;12.00;99.90;;;;;;5034113;28;20088;-83
2022/10/14 01:43:06;;;;;;;0.00;0.00;;;12.10;99.90;;;;;;5033669;28;20131;-83
2022/10/14 01:45:35;;;;;;;0.20;0.20;;;12.00;99.90;;;;;;5017555;28;20513;-83
2022/10/14 01:48:04;;;;;;;0.10;0.10;;;12.00;99.90;;;;;;5034115;28;20453;-82
2022/10/14 01:50:31;;;;;;;0.10;0.10;;;12.00;99.90;;;;;;5034034;28;20053;-83
2022/10/14 01:53:14;;;;;;;0.00;0.00;;;11.90;99.90;;;;;;5034093;28;20061;-83
2022/10/14 01:55:43;;;;;;;0.00;0.00;;;12.00;99.90;;;;;;5034092;28;20052;-83
2022/10/14 01:58:11;;;;;;;0.00;0.00;;;11.90;99.90;;;;;;5017328;28;20551;-82
2022/10/14 02:00:37;;;;;;;0.60;0.60;;;11.80;99.90;;;;;;5017651;28;20053;-82
2022/10/14 02:03:03;;;;;;;0.10;0.10;;;11.80;99.90;;;;;;5017104;28;20048;-82
2022/10/14 02:05:38;;;;;;;0.00;0.00;;;11.80;99.90;;;;;;5034447;28;20068;-82
2022/10/14 02:08:09;;;;;;;;;;;11.80;99.90;;;;;;5034876;28;20132;-83
2022/10/14 02:11:04;;;;;;;0.00;0.00;;;11.80;99.90;;;;;;5034007;28;19928;-82
2022/10/14 02:13:45;;;;;;;1.55;0.20;;;11.80;99.90;;;;;;5033105;28;20405;-83
2022/10/14 02:16:20;;;;;;;0.03;0.00;;;11.80;99.90;;;;;;5017207;28;20049;-83
2022/10/14 02:19:01;;;;;;;0.00;0.00;;;11.80;99.90;;;;;;5017035;28;20079;-83
2022/10/14 02:21:50;;;;;;;0.00;0.00;;;11.80;99.90;;;;;;5017138;28;20417;-83
2022/10/14 02:24:21;;;;;;;0.20;0.20;;;11.70;99.90;;;;;;5015938;28;20100;-83
2022/10/14 02:26:49;;;;;;;0.00;0.00;;;11.70;99.90;;;;;;5016013;28;20155;-83
2022/10/14 02:29:17;;;;;;;0.10;0.10;;;11.70;99.90;;;;;;5015890;28;20064;-83
2022/10/14 02:31:45;;;;;;;0.00;0.00;;;11.80;99.90;;;;;;5016063;28;20045;-83
2022/10/14 02:34:13;;;;;;;0.40;0.28;;;11.80;99.90;;;;;;4999056;28;20047;-83
2022/10/14 02:36:40;;;;;;;0.10;0.10;;;11.80;99.90;;;;;;5015751;28;20517;-83
2022/10/14 02:39:08;;;;;;;0.10;0.10;;;11.80;99.90;;;;;;4998831;28;20517;-83
2022/10/14 02:41:36;;;;;;;0.10;0.10;;;11.90;99.90;;;;;;4999605;28;20528;-83
2022/10/14 02:44:05;;;;;;;0.05;0.05;;;11.90;99.90;;;;;;5015321;28;20053;-83
2022/10/14 02:46:31;;;;;;;0.10;0.10;;;11.90;99.90;;;;;;4999115;28;20144;-83
2022/10/14 02:48:57;;;;;;;0.17;0.17;;;11.80;99.90;;;;;;5015545;28;20148;-83
2022/10/14 02:51:22;;;;;;;0.00;0.00;;;11.80;99.90;;;;;;5001420;28;20531;-83
2022/10/14 02:53:48;;;;;;;0.20;0.20;;;11.70;99.90;;;;;;5052535;28;20058;-83
2022/10/14 02:56:15;;;;;;;2.80;0.75;;;11.80;99.90;;;;;;5003250;28;20528;-83
2022/10/14 02:58:41;;;;;;;0.17;0.10;;;11.70;99.90;;;;;;5036130;28;20577;-83
2022/10/14 03:01:07;;;;;;;0.73;0.45;;;11.80;99.90;;;;;;5025191;28;20216;-83
2022/10/14 03:03:33;;;;;;;0.30;0.10;;;11.80;99.90;;;;;;5036630;28;20038;-83
2022/10/14 03:05:59;;;;;;;0.15;0.15;;;11.80;99.90;;;;;;5020291;28;20103;-83
2022/10/14 03:08:24;;;;;;;0.20;0.13;;;11.80;99.90;;;;;;5037339;28;20053;-83
2022/10/14 03:10:50;;;;;;;0.90;0.68;;;11.80;99.90;;;;;;5036717;28;20104;-83
2022/10/14 03:13:16;;;;;;;0.40;0.40;;;11.80;99.90;;;;;;5037787;28;20103;-83
2022/10/14 03:15:41;;;;;;;0.00;0.00;;;11.80;99.90;;;;;;5040614;28;20133;-83
2022/10/14 03:18:07;;;;;;;1.58;0.30;;;11.80;99.90;;;;;;5023808;28;20049;-83
2022/10/14 03:20:33;;;;;;;0.50;0.50;;;11.80;99.90;;;;;;5021723;28;20071;-84
2022/10/14 03:22:58;;;;;;;1.35;0.10;;;11.80;99.90;;;;;;5036308;28;20473;-83
2022/10/14 03:25:24;;;;;;;0.10;0.10;;;11.90;99.90;;;;;;5020132;28;20194;-83
2022/10/14 03:27:53;;;;;;;0.00;0.00;;;11.90;99.90;;;;;;5020075;28;20056;-84
2022/10/14 03:30:18;;;;;;;0.35;0.30;;;11.90;99.90;;;;;;5020363;28;20057;-83
2022/10/14 03:32:44;;;;;;;0.43;0.43;;;11.90;99.90;;;;;;5019624;28;20052;-83
2022/10/14 03:35:10;;;;;;;1.20;0.40;;;11.90;99.90;;;;;;5019549;28;20374;-83
2022/10/14 03:37:35;;;;;;;3.05;0.65;;;11.90;99.90;;;;;;5019467;28;20053;-83
2022/10/14 03:40:01;;;;;;;0.30;0.30;;;11.90;99.90;;;;;;5052825;28;20041;-83
2022/10/14 03:42:26;;;;;;;0.35;0.35;;;11.90;99.90;;;;;;5036451;28;20057;-83
2022/10/14 03:44:52;;;;;;;0.10;0.10;;;12.10;99.90;;;;;;5020353;28;20537;-83
2022/10/14 03:47:18;;;;;;;0.20;0.20;;;11.90;99.90;;;;;;5052853;28;20111;-83
2022/10/14 03:49:44;;;;;;;2.15;0.40;;;11.90;99.90;;;;;;5035886;28;20045;-83
2022/10/14 03:52:09;;;;;;;0.10;0.10;;;11.90;99.90;;;;;;5018203;28;20076;-83
2022/10/14 03:54:35;;;;;;;0.00;0.00;;;11.90;99.90;;;;;;5034989;28;20458;-83
2022/10/14 03:57:01;;;;;;;0.52;0.52;;;12.10;99.90;;;;;;5018098;28;20049;-83
2022/10/14 03:59:26;;;;;;;0.10;0.10;;;11.90;99.90;;;;;;5017982;28;20057;-83
2022/10/14 04:01:52;;;;;;;0.85;0.32;;;12.40;99.90;;;;;;5034082;28;20129;-83
2022/10/14 04:04:18;;;;;;;0.10;0.10;;;11.80;99.90;;;;;;5018164;28;20053;-83
2022/10/14 04:06:43;;;;;;;0.20;0.20;;;12.50;99.90;;;;;;5017969;28;20867;-83
2022/10/14 04:09:09;;;;;;;0.10;0.10;;;11.90;99.90;;;;;;5051108;28;20144;-83
2022/10/14 04:11:35;;;;;;;0.00;0.00;;;12.20;99.90;;;;;;5034466;28;20381;-83
2022/10/14 04:14:00;;;;;;;0.68;0.50;;;11.90;99.90;;;;;;5017915;28;20134;-83
2022/10/14 04:16:26;;;;;;;0.65;0.63;;;11.90;99.90;;;;;;5034167;28;20053;-83
2022/10/14 04:18:52;;;;;;;0.00;0.00;;;12.00;99.90;;;;;;5067845;28;20046;-83
2022/10/14 04:21:18;;;;;;;0.25;0.25;;;11.90;99.90;;;;;;5034131;28;20041;-83
2022/10/14 04:23:44;;;;;;;0.00;0.00;;;12.00;99.90;;;;;;5034650;28;20079;-83
2022/10/14 04:26:10;;;;;;;0.00;0.00;;;11.90;99.90;;;;;;5017932;28;20107;-83
2022/10/14 04:28:36;;;;;;;0.20;0.00;;;11.70;99.90;;;;;;5034163;28;20052;-83
2022/10/14 04:31:03;;;;;;;0.10;0.10;;;11.80;99.90;;;;;;5033990;28;20037;-83
2022/10/14 04:33:28;;;;;;;0.28;0.15;;;11.80;99.90;;;;;;5017631;28;20076;-83
2022/10/14 04:35:58;;;;;;;0.00;0.00;;;11.80;99.90;;;;;;5017904;28;20053;-82
2022/10/14 04:38:24;;;;;;;1.90;0.75;;;11.80;99.90;;;;;;5044522;28;20048;-83
2022/10/14 04:40:50;;;;;;;0.00;0.00;;;12.10;99.90;;;;;;5037683;28;20135;-83
2022/10/14 04:43:16;;;;;;;0.20;0.20;;;11.80;99.90;;;;;;5054214;28;20081;-83
2022/10/14 04:45:41;;;;;;;0.35;0.10;;;11.90;99.90;;;;;;5037127;28;20041;-83
2022/10/14 04:48:07;;;;;;;0.00;0.00;;;11.70;99.90;;;;;;5053819;28;20078;-82
2022/10/14 04:53:10;;;;;;;0.00;0.00;;;11.80;99.90;;;;;;5091689;27;20458;-83
2022/10/14 04:55:36;;;;;;;0.00;0.00;;;11.70;99.90;;;;;;5090428;28;20060;-84
2022/10/14 04:58:05;;;;;;;0.10;0.10;;;11.70;99.90;;;;;;5074159;28;20086;-84
2022/10/14 05:00:31;;;;;;;0.98;0.10;;;11.70;99.90;;;;;;5074005;28;20100;-84
2022/10/14 05:02:56;;;;;;;0.00;0.00;;;11.60;99.90;;;;;;5073832;28;20040;-83
2022/10/14 05:05:22;;;;;;;0.00;0.00;;;11.90;99.90;;;;;;5091442;28;20040;-83
2022/10/14 05:07:48;;;;;;;0.00;0.00;;;11.60;99.90;;;;;;5075281;28;20048;-83
2022/10/14 05:10:13;;;;;;;0.00;0.00;;;11.60;99.90;;;;;;5078165;28;20048;-84
2022/10/14 05:12:39;;;;;;;0.08;0.00;;;11.60;99.90;;;;;;5095221;28;20040;-84
2022/10/14 05:15:06;;;;;;;0.20;0.17;;;11.60;99.90;;;;;;5073520;28;20050;-84
2022/10/14 05:17:32;;;;;;;0.00;0.00;;;11.50;99.90;;;;;;5090277;28;20177;-84
2022/10/14 05:19:58;;;;;;;0.00;0.00;;;11.50;99.90;;;;;;5091442;28;20096;-85
2022/10/14 05:22:24;;;;;;;1.00;0.10;;;11.40;99.90;;;;;;5090776;28;20117;-84
2022/10/14 05:24:50;;;;;;;4.38;0.32;;;11.40;99.90;;;;;;5073905;28;20130;-84
2022/10/14 05:27:16;;;;;;;0.30;0.30;;;11.40;99.90;;;;;;5073224;28;20097;-84
2022/10/14 05:29:41;;;;;;;0.00;0.00;;;11.30;99.90;;;;;;5073310;28;20458;-84
2022/10/14 05:32:07;;;;;;;0.00;0.00;;;11.30;99.90;;;;;;5072753;28;20050;-84
2022/10/14 05:34:33;;;;;;;0.47;0.28;;;11.30;99.90;;;;;;5072693;28;20040;-84
2022/10/14 05:36:59;;;;;;;0.03;0.03;;;11.20;99.90;;;;;;5072965;28;20056;-84
2022/10/14 05:39:25;;;;;;;0.13;0.13;;;11.30;99.90;;;;;;5073320;28;20040;-84
2022/10/14 05:41:50;;;;;;;0.00;0.00;;;11.20;99.90;;;;;;5090137;28;20102;-84
2022/10/14 05:44:16;;;;;;;0.10;0.10;;;11.10;99.90;;;;;;5073164;28;20040;-84
2022/10/14 05:46:42;;;;;;;0.00;0.00;;;11.00;99.90;;;;;;5073053;28;20499;-84
2022/10/14 05:49:09;;;;;;;0.00;0.00;;;11.00;99.90;;;;;;5089802;28;20040;-82
2022/10/14 05:51:34;;;;;;;0.00;0.00;;;10.90;99.90;;;;;;5072470;28;20472;-82
2022/10/14 05:54:00;;;;;;;0.00;0.00;;;10.90;99.90;;;;;;5073552;28;20056;-82
2022/10/14 05:56:26;;;;;;;0.10;0.10;;;10.90;99.90;;;;;;5089651;28;20066;-82
2022/10/14 05:58:51;;;;;;;0.00;0.00;;;10.90;99.90;;;;;;5072927;28;20518;-82
2022/10/14 06:01:17;;;;;;;0.00;0.00;;;10.90;99.90;;;;;;5089222;28;20051;-83
2022/10/14 06:03:43;;;;;;;0.00;0.00;;;10.90;99.90;;;;;;5063988;28;20044;-83
2022/10/14 06:06:13;;;;;;;0.50;0.30;;;10.90;99.90;;;;;;5075949;28;20174;-82
2022/10/14 06:08:39;;;;;;;0.00;0.00;;;11.00;99.90;;;;;;5059165;28;20045;-83
2022/10/14 06:11:06;;;;;;;0.00;0.00;;;11.00;99.90;;;;;;5075690;28;20051;-83
2022/10/14 06:13:33;;;;;;;1.08;0.52;;;10.90;99.90;;;;;;5058971;28;20052;-83
2022/10/14 06:16:07;;;;;;;0.20;0.20;;;11.00;99.90;;;;;;5075755;28;20040;-85
2022/10/14 06:18:34;;;;;;;0.88;0.20;;;11.10;99.90;;;;;;5059502;28;20084;-85
2022/10/14 06:21:00;;;;;;;0.00;0.00;;;11.10;99.90;;;;;;5075651;28;20544;-84
2022/10/14 06:23:26;;;;;;;0.00;0.00;;;11.10;99.90;;;;;;5075438;28;20123;-85
2022/10/14 06:25:52;;;;;;;0.00;0.00;;;11.30;99.90;;;;;;5058108;28;20496;-84
2022/10/14 06:28:18;;;;;;;0.22;0.03;;;11.20;99.90;;;;;;5058591;28;20083;-84
2022/10/14 06:30:53;;;;;;;0.20;0.20;;;11.20;99.90;;;;;;5075424;28;20389;-85
2022/10/14 06:33:20;;;;;;;8.98;0.65;;;11.20;99.90;;;;;;5058781;28;20112;-84
2022/10/14 06:35:46;;;;;;;0.22;0.22;;;11.20;99.90;;;;;;5075657;28;20075;-84
2022/10/14 06:38:13;;;;;;;0.10;0.10;;;11.20;99.90;;;;;;5058512;28;20507;-84
2022/10/14 06:40:39;;;;;;;0.30;0.30;;;11.30;99.90;;;;;;5075200;28;20044;-84
2022/10/14 06:43:04;;;;;;;0.50;0.43;;;11.30;99.90;;;;;;5075368;28;20048;-84
2022/10/14 06:45:31;;;;;;;5.05;1.00;;;11.40;99.90;;;;;;5058371;28;20044;-84
2022/10/14 06:47:58;;;;;;;1.08;0.63;;;11.40;99.90;;;;;;5058780;28;20139;-84
2022/10/14 06:50:23;;;;;;;0.10;0.10;;;11.40;99.90;;;;;;5075641;28;20048;-84
2022/10/14 06:52:49;;;;;;;0.00;0.00;;;11.50;99.90;;;;;;5058109;28;20075;-84
2022/10/14 06:55:15;;;;;;;0.00;0.00;;;11.50;99.90;;;;;;5075551;28;20051;-84
2022/10/14 06:57:41;;;;;;;0.00;0.00;;;11.60;99.90;;;;;;5075513;28;20044;-84
2022/10/14 07:00:07;;;;;;;0.68;0.00;;;11.70;99.90;;;;;;5084813;28;20070;-84
2022/10/14 07:02:33;;;;;;;0.38;0.38;;;11.70;99.90;;;;;;5093394;28;20074;-84
2022/10/14 07:04:59;;;;;;;0.00;0.00;;;11.70;99.90;;;;;;5074535;28;20056;-84
2022/10/14 07:07:24;;;;;;;0.20;0.20;;;12.60;99.90;;;;;;5058833;28;20110;-84
2022/10/14 07:09:50;;;;;;;0.00;0.00;;;11.90;99.90;;;;;;5058547;28;20045;-84
2022/10/14 07:12:16;;;;;;;0.35;0.35;;;11.80;99.90;;;;;;5057864;28;20043;-83
2022/10/14 07:14:41;;;;;;;0.60;0.22;;;11.90;99.90;;;;;;5057207;28;20074;-83
2022/10/14 07:17:07;;;;;;;0.00;0.00;;;11.90;99.90;;;;;;5058144;28;20044;-84
2022/10/14 07:19:33;;;;;;;0.20;0.17;;;12.20;99.90;;;;;;5074909;28;20106;-83
2022/10/14 07:21:59;;;;;;;0.03;0.03;;;12.40;99.90;;;;;;5057878;28;20041;-83
2022/10/14 07:24:25;;;;;;;0.80;0.22;;;12.60;99.90;;;;;;5074619;28;20051;-83
2022/10/14 07:26:51;;;;;;;0.40;0.40;;;12.10;99.90;;;;;;5057851;28;20055;-83
2022/10/14 07:29:16;;;;;;;0.00;0.00;;;12.50;99.90;;;;;;5074605;28;20098;-83
2022/10/14 07:31:42;;;;;;;0.22;0.10;;;12.20;99.90;;;;;;5057629;28;20086;-83
2022/10/14 07:34:08;;;;;;;1.50;0.20;;;12.00;99.90;;;;;;5058119;28;20049;-83
2022/10/14 07:36:34;;;;;;;1.25;0.40;;;12.10;99.90;;;;;;5057938;28;20442;-83
2022/10/14 07:38:59;;;;;;;0.50;0.50;;;12.10;99.90;;;;;;5057700;28;20135;-83
2022/10/14 07:41:26;;;;;;;0.10;0.10;;;12.70;99.90;;;;;;5057412;28;20047;-83
2022/10/14 07:43:56;;;;;;;0.90;0.50;;;12.30;99.90;;;;;;5074128;28;20048;-83
2022/10/14 07:46:42;;;;;;;2.67;0.93;;;12.10;99.90;;;;;;5074349;28;20048;-83
2022/10/14 07:49:11;;;;;;;0.10;0.10;;;12.10;99.90;;;;;;5057349;28;20044;-83
2022/10/14 07:51:38;;;;;;;0.65;0.52;;;13.00;99.90;;;;;;5056827;28;20101;-83
2022/10/14 07:54:09;;;;;;;3.60;0.70;;;12.10;99.90;;;;;;5073960;28;20045;-83
2022/10/14 07:56:36;;;;;;;1.48;0.30;;;12.20;99.90;;;;;;5057599;28;20067;-83
2022/10/14 07:59:02;;;;;;;0.08;0.08;;;12.80;99.90;;;;;;5073875;28;20055;-83
2022/10/14 08:01:28;;;;;;;0.30;0.30;;;12.20;99.90;;;;;;5057343;28;20044;-83
2022/10/14 08:03:54;;;;;;;0.52;0.52;;;12.20;99.90;;;;;;5057325;28;20105;-83
2022/10/14 08:06:20;;;;;;;0.10;0.05;;;12.20;99.90;;;;;;5057263;28;20041;-83
2022/10/14 08:08:46;;;;;;;0.00;0.00;;;12.30;99.90;;;;;;5074086;28;20048;-83
2022/10/14 08:11:21;;;;;;;0.08;0.08;;;12.70;99.90;;;;;;5073369;28;20516;-83
2022/10/14 08:13:47;;;;;;;;;;;12.30;99.90;;;;;;5057083;28;20527;-83
2022/10/14 08:16:17;;;;;;;1.95;0.40;;;12.30;99.90;;;;;;5073545;28;19920;-83
2022/10/14 08:18:45;;;;;;;0.10;0.10;;;12.90;99.90;;;;;;5073521;28;20041;-83
2022/10/14 08:21:10;;;;;;;0.10;0.10;;;12.30;99.90;;;;;;5056873;28;20080;-83
2022/10/14 08:23:36;;;;;;;0.45;0.30;;;12.90;99.90;;;;;;5073386;28;20496;-83
2022/10/14 08:26:02;;;;;;;0.47;0.47;;;12.50;99.90;;;;;;5073203;28;20139;-83
2022/10/14 08:28:28;;;;;;;1.75;0.35;;;12.40;99.90;;;;;;5073805;28;20139;-83
2022/10/14 08:30:54;;;;;;;0.00;0.00;;;12.60;99.90;;;;;;5056841;28;20174;-83
2022/10/14 08:33:19;;;;;;;1.25;0.32;;;12.50;99.90;;;;;;5073576;28;20102;-83
2022/10/14 08:35:45;;;;;;;0.00;0.00;;;12.90;99.90;;;;;;5057244;28;20048;-83
2022/10/14 08:38:11;;;;;;;0.98;0.30;;;12.50;99.90;;;;;;5056071;28;20556;-83
2022/10/14 08:41:07;;;;;;;1.40;1.35;;;12.50;99.90;;;;;;5073224;28;20052;-83
2022/10/14 08:43:46;;;;;;;0.30;0.30;;;12.50;99.90;;;;;;5073447;28;20067;-83
2022/10/14 08:46:33;;;;;;;1.85;0.98;;;12.50;99.90;;;;;;5057222;28;20567;-84
2022/10/14 08:49:10;;;;;;;3.08;0.55;;;12.50;99.90;;;;;;5073417;28;20171;-83
2022/10/14 08:51:37;;;;;;;0.50;0.50;;;12.60;99.90;;;;;;5056383;28;20498;-83
2022/10/14 08:54:14;;;;;;;0.13;0.10;;;12.60;99.90;;;;;;5073338;28;20052;-84
2022/10/14 08:56:41;;;;;;;0.70;0.70;;;12.60;99.90;;;;;;5064503;28;20044;-84
2022/10/14 08:59:13;;;;;;;0.82;0.75;;;12.60;99.90;;;;;;5064038;28;20052;-82
2022/10/14 09:01:57;;;;;;;1.73;1.30;;;12.60;99.90;;;;;;5076638;28;20385;-83
2022/10/14 09:04:22;;;;;;;0.30;0.30;;;12.60;99.90;;;;;;5073350;28;20048;-82
2022/10/14 09:06:50;;;;;;;0.15;0.15;;;12.60;99.90;;;;;;5073118;28;20143;-82
2022/10/14 09:09:34;;;;;;;0.65;0.65;;;12.70;99.90;;;;;;5072985;28;20045;-83
2022/10/14 09:12:03;;;;;;;0.32;0.32;;;12.70;99.90;;;;;;5056319;28;20526;-82
2022/10/14 09:14:36;;;;;;;0.55;0.50;;;12.70;99.90;;;;;;5056300;28;20088;-82
2022/10/14 09:17:15;;;;;;;5.70;1.63;;;12.70;99.90;;;;;;5055969;28;20063;-82
2022/10/14 09:19:45;;;;;;;0.20;0.20;;;12.80;99.90;;;;;;5073513;28;20087;-82
2022/10/14 09:22:14;;;;;;;0.10;0.10;;;12.90;99.90;;;;;;5056433;28;20044;-82
2022/10/14 09:24:40;;;;;;;1.25;0.70;;;12.90;99.90;;;;;;5056180;28;20052;-82
2022/10/14 09:27:11;;;;;;;0.00;0.00;;;12.90;99.90;;;;;;5055994;28;20052;-82
2022/10/14 09:29:45;;;;;;;0.38;0.38;;;12.90;99.90;;;;;;5056283;28;20125;-83
2022/10/14 09:32:15;;;;;;;1.30;0.85;;;12.90;99.90;;;;;;5072334;28;20048;-83
2022/10/14 09:34:46;;;;;;;1.20;1.10;;;13.00;99.90;;;;;;5072736;28;20107;-83
2022/10/14 09:37:15;;;;;;;0.08;0.08;;;12.90;99.90;;;;;;5073060;28;20064;-83
2022/10/14 09:39:41;;;;;;;0.43;0.43;;;13.20;99.90;;;;;;5059277;28;20087;-83
2022/10/14 09:42:16;;;;;;;0.10;0.03;;;12.90;99.90;;;;;;5059654;28;20079;-84
2022/10/14 09:44:42;;;;;;;0.30;0.30;;;12.90;99.90;;;;;;5059965;28;20059;-84
2022/10/14 09:47:12;;;;;;;0.00;0.00;;;13.10;99.90;;;;;;5059887;28;20048;-84
2022/10/14 09:49:44;;;;;;;1.55;0.73;;;13.00;99.90;;;;;;5059849;28;20056;-84
2022/10/14 09:52:22;;;;;;;0.43;0.30;;;13.00;99.90;;;;;;5076125;28;20475;-85
2022/10/14 09:54:57;;;;;;;0.77;0.45;;;13.10;99.90;;;;;;5059486;28;20488;-87
2022/10/14 09:57:24;;;;;;;0.38;0.38;;;13.00;99.90;;;;;;5059596;28;20049;-86
2022/10/14 09:59:58;;;;;;;1.98;1.10;;;13.00;99.90;;;;;;5059411;28;20490;-86
2022/10/14 10:02:40;;;;;;;0.98;0.25;;;13.00;99.90;;;;;;5076151;28;20049;-87
2022/10/14 10:05:27;;;;;;;3.63;0.80;;;13.10;99.90;;;;;;5059537;28;20048;-87
2022/10/14 10:08:17;;;;;;;1.13;0.50;;;13.10;99.90;;;;;;5059802;28;20048;-87
2022/10/14 10:11:12;;;;;;;0.00;0.00;;;13.10;99.90;;;;;;5059229;28;20514;-87
2022/10/14 10:13:43;;;;;;;0.03;0.03;;;13.10;99.90;;;;;;5074233;28;20067;-87
2022/10/14 10:16:23;;;;;;;2.47;0.45;;;13.10;99.90;;;;;;5059012;28;20500;-87
2022/10/14 10:18:51;;;;;;;0.38;0.38;;;13.10;99.90;;;;;;5059435;28;20370;-87
2022/10/14 10:21:23;;;;;;;0.10;0.10;;;13.50;99.90;;;;;;5075707;28;20094;-87
2022/10/14 10:24:00;;;;;;;0.43;0.32;;;13.30;99.90;;;;;;5058839;28;20139;-87
2022/10/14 10:26:32;;;;;;;0.45;0.32;;;13.20;99.90;;;;;;5059198;28;20063;-88
2022/10/14 10:29:01;;;;;;;0.63;0.57;;;13.20;99.90;;;;;;5059251;28;20080;-88
2022/10/14 10:31:47;;;;;;;0.10;0.08;;;13.30;99.90;;;;;;5075440;28;20040;-87
2022/10/14 10:34:43;;;;;;;0.28;0.28;;;13.20;99.90;;;;;;5075141;28;20094;-87
2022/10/14 10:37:32;;;;;;;0.00;0.00;;;13.20;99.90;;;;;;5058630;28;20052;-87
2022/10/14 10:40:23;;;;;;;0.05;0.00;;;13.20;99.90;;;;;;5075443;28;20044;-87
2022/10/14 10:43:26;;;;;;;0.00;0.00;;;13.20;99.90;;;;;;5059427;28;20094;-86
2022/10/14 10:45:58;;;;;;;1.83;0.77;;;13.20;99.90;;;;;;5058707;28;20052;-86
2022/10/14 10:48:41;;;;;;;1.17;0.20;;;13.20;99.90;;;;;;5058686;28;20058;-85
2022/10/14 10:51:24;;;;;;;1.55;0.35;;;13.30;99.90;;;;;;5058404;28;20084;-86
2022/10/14 10:54:40;;;;;;;5.07;1.27;;;13.30;99.90;;;;;;5078096;28;20044;-86
2022/10/14 10:57:28;;;;;;;0.80;0.63;;;13.30;99.90;;;;;;5084226;28;20048;-85
2022/10/14 11:00:11;;;;;;;0.60;0.60;;;13.30;99.90;;;;;;5080544;28;20047;-85
2022/10/14 11:02:39;;;;;;;0.10;0.10;;;13.40;99.90;;;;;;5058721;28;20489;-84
2022/10/14 11:05:16;;;;;;;0.20;0.20;;;13.40;99.90;;;;;;5075103;28;20479;-84
2022/10/14 11:14:09;;;;;;;;;;;13.60;99.90;;;;;;5075416;28;20057;-84
2022/10/14 11:17:04;;;;;;;0.57;0.57;;;13.70;99.90;;;;;;5057980;28;20371;-83
2022/10/14 11:19:40;;;;;;;0.00;0.00;;;13.70;99.90;;;;;;5074659;28;20048;-83
2022/10/14 11:22:18;;;;;;;1.00;0.68;;;13.40;99.90;;;;;;5058106;28;20374;-83
2022/10/14 11:25:05;;;;;;;0.70;0.35;;;13.70;99.90;;;;;;5058441;28;20052;-84
2022/10/14 11:27:44;;;;;;;7.22;1.55;;;13.80;99.90;;;;;;5057728;28;20056;-83
2022/10/14 11:30:17;;;;;;;4.95;1.45;;;13.90;99.90;;;;;;5057856;28;20056;-83
2022/10/14 11:33:10;;;;;;;0.20;0.20;;;14.00;99.90;;;;;;5074621;28;20082;-83
2022/10/14 11:36:10;;;;;;;0.13;0.10;;;14.00;99.90;;;;;;5074418;28;20485;-83
2022/10/14 11:38:53;;;;;;;0.22;0.22;;;14.10;99.90;;;;;;5074385;28;20040;-83
2022/10/14 11:41:34;;;;;;;0.55;0.32;;;14.20;99.90;;;;;;5073935;28;20044;-83
2022/10/14 11:44:24;;;;;;;0.00;0.00;;;14.20;99.90;;;;;;5074283;28;20052;-83
2022/10/14 11:46:58;;;;;;;0.77;0.52;;;14.30;99.90;;;;;;5073962;28;20049;-83
2022/10/14 11:49:31;;;;;;;0.30;0.30;;;14.30;99.90;;;;;;5057856;28;20053;-83
2022/10/14 11:52:02;;;;;;;0.13;0.13;;;14.30;99.90;;;;;;5056877;28;20063;-83
2022/10/14 11:54:48;;;;;;;1.02;0.47;;;14.30;99.90;;;;;;5074090;28;20067;-83
2022/10/14 11:57:36;;;;;;;0.77;0.32;;;14.30;99.90;;;;;;5057496;28;20052;-83
2022/10/14 12:00:07;;;;;;;0.30;0.30;;;14.30;99.90;;;;;;5057277;28;20408;-83
2022/10/14 12:02:42;;;;;;;5.57;0.90;;;14.30;99.90;;;;;;5056559;28;20146;-83
2022/10/14 12:05:22;;;;;;;0.85;0.70;;;14.30;99.90;;;;;;5057413;28;20044;-83
2022/10/14 12:08:01;;;;;;;0.95;0.45;;;14.30;99.90;;;;;;5056740;28;20500;-83
2022/10/14 12:10:37;;;;;;;2.47;0.98;;;14.40;99.90;;;;;;5057661;28;20056;-83
2022/10/14 12:13:09;;;;;;;0.08;0.08;;;14.40;99.90;;;;;;5073508;28;20511;-83
2022/10/14 12:15:39;;;;;;;0.05;0.05;;;14.80;99.90;;;;;;5056825;28;20041;-83
2022/10/14 12:18:05;;;;;;;1.13;0.30;;;14.50;99.90;;;;;;5056739;28;20109;-83
2022/10/14 12:20:30;;;;;;;0.80;0.43;;;14.60;99.90;;;;;;5056690;28;20444;-83
2022/10/14 12:22:58;;;;;;;0.20;0.20;;;14.60;99.90;;;;;;5073604;28;20388;-83
2022/10/14 12:25:26;;;;;;;2.65;0.45;;;14.60;99.90;;;;;;5056595;28;20052;-84
2022/10/14 12:27:54;;;;;;;0.13;0.13;;;14.60;99.90;;;;;;5056826;28;20052;-83
2022/10/14 12:30:36;;;;;;;0.17;0.13;;;14.70;99.90;;;;;;5056617;28;20064;-83
2022/10/14 12:33:05;;;;;;;0.08;0.08;;;14.60;99.90;;;;;;5056041;28;20464;-83
2022/10/14 12:35:51;;;;;;;0.10;0.10;;;15.20;99.90;;;;;;5073109;28;20045;-83
2022/10/14 12:38:18;;;;;;;0.10;0.10;;;14.60;99.90;;;;;;5056521;28;20048;-83
2022/10/14 12:40:48;;;;;;;0.00;0.00;;;14.60;99.90;;;;;;5056430;28;20509;-83
2022/10/14 12:43:22;;;;;;;0.00;0.00;;;14.60;99.90;;;;;;5072902;28;20488;-83
2022/10/14 12:46:09;;;;;;;1.85;0.40;;;14.70;99.90;;;;;;5056872;28;20397;-82
2022/10/14 12:48:37;;;;;;;0.00;0.00;;;14.70;99.90;;;;;;5073342;28;20048;-83
2022/10/14 12:51:06;;;;;;;0.35;0.10;;;14.90;99.90;;;;;;5056136;28;20505;-83
2022/10/14 12:53:33;;;;;;;0.10;0.00;;;14.70;99.90;;;;;;5056186;28;20052;-83
2022/10/14 12:56:01;;;;;;;0.10;0.00;;;14.60;99.90;;;;;;5076332;28;20144;-83
2022/10/14 12:58:37;;;;;;;0.10;0.10;;;14.80;99.90;;;;;;5065291;28;20431;-83
2022/10/14 13:01:23;;;;;;;0.98;0.35;;;14.70;99.90;;;;;;5083068;28;20044;-83
2022/10/14 13:04:13;;;;;;;0.40;0.40;;;14.30;99.90;;;;;;5056511;28;20087;-83
2022/10/14 13:06:41;;;;;;;1.05;0.65;;;14.70;99.90;;;;;;5056799;28;20063;-83
2022/10/14 13:09:15;;;;;;;0.22;0.10;;;14.30;99.90;;;;;;5073042;28;20037;-83
2022/10/14 13:12:05;;;;;;;1.27;0.60;;;14.80;99.90;;;;;;5073073;28;20439;-84
2022/10/14 13:14:56;;;;;;;0.45;0.17;;;14.80;99.90;;;;;;5058327;28;20091;-83
2022/10/14 13:17:46;;;;;;;0.40;0.40;;;14.80;99.90;;;;;;5061189;28;20516;-84